createdAt,value
2018-06-20T00:01:17.366Z,65.60
2018-06-20T00:03:21.758Z,65.50
2018-06-20T00:05:26.213Z,65.50
2018-06-20T00:07:30.643Z,65.60
2018-06-20T00:09:35.062Z,65.60
2018-06-20T00:11:39.510Z,65.70
2018-06-20T00:13:43.948Z,65.70
2018-06-20T00:15:48.370Z,65.80
2018-06-20T00:17:52.745Z,65.80
2018-06-20T00:19:57.132Z,65.90
2018-06-20T00:22:01.630Z,65.80
2018-06-20T00:24:06.090Z,65.80
2018-06-20T00:26:10.523Z,65.90
2018-06-20T00:28:14.913Z,65.90
2018-06-20T00:30:19.334Z,66.00
2018-06-20T00:32:23.702Z,66.00
2018-06-20T00:34:28.107Z,66.10
2018-06-20T00:36:32.529Z,66.30
2018-06-20T00:38:36.915Z,66.20
2018-06-20T00:40:41.340Z,66.10
2018-06-20T00:42:45.739Z,66.20
2018-06-20T00:44:50.154Z,66.20
2018-06-20T00:46:54.636Z,66.10
2018-06-20T00:48:59.047Z,66.00
2018-06-20T00:51:03.695Z,66.00
2018-06-20T00:53:08.138Z,66.10
2018-06-20T00:55:12.625Z,66.10
2018-06-20T00:57:17.040Z,66.10
2018-06-20T00:59:21.422Z,66.20
2018-06-20T01:01:28.718Z,66.20
2018-06-20T01:03:36.166Z,66.10
2018-06-20T01:05:42.601Z,66.20
2018-06-20T01:07:50.224Z,66.30
2018-06-20T01:09:57.873Z,66.30
2018-06-20T01:12:05.235Z,66.40
2018-06-20T01:14:12.240Z,66.50
2018-06-20T01:16:19.230Z,66.50
2018-06-20T01:18:26.822Z,66.60
2018-06-20T01:20:33.522Z,66.60
2018-06-20T01:22:39.509Z,66.50
2018-06-20T01:24:45.357Z,66.60
2018-06-20T01:26:51.413Z,66.60
2018-06-20T01:28:58.982Z,66.60
2018-06-20T01:31:07.038Z,66.70
2018-06-20T01:33:12.466Z,66.70
2018-06-20T01:37:25.527Z,66.50
2018-06-20T01:39:30.792Z,66.90
2018-06-20T01:41:37.810Z,66.90
2018-06-20T01:43:43.464Z,67.00
2018-06-20T01:45:50.037Z,67.00
2018-06-20T01:47:56.633Z,67.00
2018-06-20T01:50:04.071Z,67.00
2018-06-20T01:52:11.872Z,67.00
2018-06-20T01:54:18.395Z,67.00
2018-06-20T01:56:26.086Z,67.00
2018-06-20T01:58:31.738Z,67.10
2018-06-20T02:02:40.666Z,67.10
2018-06-20T02:04:45.240Z,67.20
2018-06-20T02:06:51.071Z,67.30
2018-06-20T02:08:58.979Z,67.30
2018-06-20T02:11:05.891Z,67.30
2018-06-20T02:13:12.170Z,67.30
2018-06-20T02:15:18.331Z,67.40
2018-06-20T02:17:23.740Z,68.20
2018-06-20T02:19:29.843Z,67.40
2018-06-20T02:21:36.378Z,67.30
2018-06-20T02:23:40.828Z,67.30
2018-06-20T02:27:49.490Z,67.50
2018-06-20T02:29:53.943Z,67.40
2018-06-20T02:31:58.407Z,67.50
2018-06-20T02:36:12.228Z,67.40
2018-06-20T02:38:16.653Z,67.30
2018-06-20T02:40:21.126Z,67.50
2018-06-20T02:42:25.563Z,67.50
2018-06-20T02:44:30.020Z,67.60
2018-06-20T02:46:34.802Z,67.60
2018-06-20T02:48:39.246Z,68.50
2018-06-20T02:50:43.683Z,67.70
2018-06-20T02:52:48.212Z,67.70
2018-06-20T02:54:52.594Z,67.70
2018-06-20T02:56:57.010Z,67.70
2018-06-20T02:59:01.436Z,67.70
2018-06-20T03:01:06.287Z,67.60
2018-06-20T03:03:10.671Z,67.60
2018-06-20T03:05:15.111Z,67.60
2018-06-20T03:07:19.538Z,67.70
2018-06-20T03:09:29.215Z,67.80
2018-06-20T03:11:33.700Z,67.80
2018-06-20T03:13:38.112Z,67.70
2018-06-20T03:15:42.567Z,67.80
2018-06-20T03:17:46.988Z,67.80
2018-06-20T03:19:51.444Z,67.80
2018-06-20T03:21:55.931Z,67.70
2018-06-20T03:24:00.382Z,67.90
2018-06-20T03:26:05.959Z,68.70
2018-06-20T03:28:10.438Z,67.80
2018-06-20T03:30:14.843Z,67.90
2018-06-20T03:32:19.330Z,67.90
2018-06-20T03:34:23.774Z,67.80
2018-06-20T03:36:28.251Z,67.80
2018-06-20T03:38:32.699Z,67.90
2018-06-20T03:40:37.341Z,67.90
2018-06-20T03:42:41.751Z,67.90
2018-06-20T03:44:46.187Z,68.00
2018-06-20T03:46:50.658Z,68.00
2018-06-20T03:48:55.211Z,68.00
2018-06-20T03:50:59.641Z,68.00
2018-06-20T03:53:04.099Z,68.10
2018-06-20T03:55:08.521Z,68.00
2018-06-20T03:57:12.979Z,68.20
2018-06-20T03:59:17.439Z,68.30
2018-06-20T04:01:22.976Z,68.30
2018-06-20T04:03:27.750Z,68.20
2018-06-20T04:05:33.446Z,68.30
2018-06-20T04:07:40.111Z,68.50
2018-06-20T04:09:46.981Z,69.20
2018-06-20T04:11:53.370Z,68.50
2018-06-20T04:13:59.889Z,68.50
2018-06-20T04:16:05.054Z,68.60
2018-06-20T04:18:11.150Z,68.60
2018-06-20T04:20:18.076Z,68.50
2018-06-20T04:22:22.685Z,68.60
2018-06-20T04:24:27.211Z,68.50
2018-06-20T04:26:31.723Z,68.50
2018-06-20T04:28:36.480Z,68.50
2018-06-20T04:30:40.936Z,68.50
2018-06-20T04:34:50.646Z,68.60
2018-06-20T04:36:55.267Z,69.30
2018-06-20T04:38:59.699Z,68.50
2018-06-20T04:41:04.190Z,68.60
2018-06-20T04:43:08.641Z,68.70
2018-06-20T04:45:13.078Z,68.70
2018-06-20T04:47:17.555Z,68.70
2018-06-20T04:49:22.624Z,68.80
2018-06-20T04:51:27.111Z,68.80
2018-06-20T04:53:31.684Z,68.80
2018-06-20T04:55:36.117Z,68.80
2018-06-20T04:57:40.599Z,68.90
2018-06-20T04:59:45.011Z,69.10
2018-06-20T05:01:49.852Z,69.00
2018-06-20T05:03:54.630Z,69.00
2018-06-20T05:05:59.071Z,69.00
2018-06-20T05:08:03.605Z,69.10
2018-06-20T05:10:08.156Z,68.90
2018-06-20T05:14:17.057Z,69.50
2018-06-20T05:16:21.501Z,69.20
2018-06-20T05:18:26.967Z,69.30
2018-06-20T05:20:31.420Z,70.10
2018-06-20T05:22:36.122Z,69.40
2018-06-20T05:24:40.519Z,69.40
2018-06-20T05:26:45.019Z,69.40
2018-06-20T05:28:49.486Z,69.40
2018-06-20T05:30:56.844Z,69.40
2018-06-20T05:33:01.521Z,69.40
2018-06-20T05:35:07.085Z,69.40
2018-06-20T05:37:11.559Z,69.50
2018-06-20T05:39:16.015Z,69.50
2018-06-20T05:41:20.471Z,69.50
2018-06-20T05:43:24.934Z,69.50
2018-06-20T05:45:29.346Z,69.60
2018-06-20T05:47:33.783Z,69.60
2018-06-20T05:49:38.254Z,69.60
2018-06-20T05:51:42.720Z,69.60
2018-06-20T05:55:51.504Z,69.20
2018-06-20T05:57:55.979Z,69.90
2018-06-20T06:00:00.436Z,69.90
2018-06-20T06:02:05.525Z,70.60
2018-06-20T06:04:09.971Z,69.80
2018-06-20T06:08:20.660Z,69.80
2018-06-20T06:10:25.107Z,69.60
2018-06-20T06:12:30.235Z,69.60
2018-06-20T06:14:34.668Z,69.70
2018-06-20T06:16:39.099Z,69.70
2018-06-20T06:18:43.595Z,69.60
2018-06-20T06:22:52.326Z,69.40
2018-06-20T06:24:56.775Z,69.30
2018-06-20T06:27:05.653Z,69.30
2018-06-20T06:29:10.493Z,69.00
2018-06-20T06:31:15.002Z,69.00
2018-06-20T06:33:19.465Z,68.90
2018-06-20T06:35:23.883Z,68.80
2018-06-20T06:37:28.360Z,68.80
2018-06-20T06:39:33.420Z,68.60
2018-06-20T06:41:37.951Z,68.70
2018-06-20T06:43:42.426Z,68.40
2018-06-20T06:45:47.994Z,68.20
2018-06-20T06:47:55.801Z,67.80
2018-06-20T06:50:02.501Z,67.50
2018-06-20T06:52:08.693Z,67.80
2018-06-20T06:54:15.351Z,67.60
2018-06-20T06:56:20.610Z,67.20
2018-06-20T06:58:28.598Z,66.80
2018-06-20T07:00:36.556Z,66.50
2018-06-20T07:02:44.711Z,66.30
2018-06-20T07:04:49.151Z,66.00
2018-06-20T07:06:53.542Z,65.60
2018-06-20T07:08:58.020Z,65.70
2018-06-20T07:13:06.539Z,65.50
2018-06-20T07:15:11.065Z,65.40
2018-06-20T07:17:15.545Z,65.10
2018-06-20T07:19:20.002Z,64.80
2018-06-20T07:21:24.374Z,64.50
2018-06-20T07:23:28.943Z,64.60
2018-06-20T07:25:33.358Z,64.70
2018-06-20T07:27:37.795Z,64.10
2018-06-20T07:29:42.319Z,63.90
2018-06-20T07:31:46.895Z,63.80
2018-06-20T07:33:51.350Z,63.30
2018-06-20T07:35:55.947Z,62.60
2018-06-20T07:38:00.322Z,62.20
2018-06-20T07:40:04.756Z,62.30
2018-06-20T07:42:09.179Z,62.10
2018-06-20T07:44:13.638Z,61.50
2018-06-20T07:48:22.750Z,60.50
2018-06-20T07:52:32.454Z,60.60
2018-06-20T07:54:37.902Z,60.50
2018-06-20T07:56:42.302Z,59.60
2018-06-20T07:58:52.171Z,59.40
2018-06-20T08:01:02.349Z,59.50
2018-06-20T08:03:18.564Z,59.20
2018-06-20T08:05:28.399Z,58.90
2018-06-20T08:07:38.659Z,58.70
2018-06-20T08:09:48.386Z,58.40
2018-06-20T08:11:58.008Z,58.40
2018-06-20T08:15:05.790Z,58.20
2018-06-20T08:17:15.283Z,57.70
2018-06-20T08:19:25.031Z,57.70
2018-06-20T08:21:29.611Z,57.10
2018-06-20T08:23:34.131Z,57.00
2018-06-20T08:25:38.581Z,56.70
2018-06-20T08:27:43.032Z,56.20
2018-06-20T08:29:48.698Z,55.90
2018-06-20T08:31:53.284Z,55.90
2018-06-20T08:33:57.795Z,53.50
2018-06-20T08:36:02.251Z,54.30
2018-06-20T08:38:06.719Z,54.00
2018-06-20T08:40:11.366Z,54.00
2018-06-20T08:42:15.784Z,54.00
2018-06-20T08:44:20.232Z,54.60
2018-06-20T08:46:24.659Z,54.10
2018-06-20T08:48:29.133Z,53.80
2018-06-20T08:50:33.586Z,53.80
2018-06-20T08:52:37.986Z,53.80
2018-06-20T08:54:42.558Z,53.70
2018-06-20T08:56:47.068Z,53.70
2018-06-20T08:58:51.489Z,53.70
2018-06-20T09:01:00.828Z,53.80
2018-06-20T09:03:05.271Z,53.20
2018-06-20T09:05:14.898Z,52.90
2018-06-20T09:07:24.683Z,53.00
2018-06-20T09:11:44.146Z,52.70
2018-06-20T09:13:54.573Z,52.80
2018-06-20T09:16:04.375Z,53.50
2018-06-20T09:18:14.348Z,53.00
2018-06-20T09:20:19.724Z,53.40
2018-06-20T09:22:24.371Z,52.80
2018-06-20T09:24:29.420Z,53.00
2018-06-20T09:26:34.489Z,53.40
2018-06-20T09:28:38.915Z,52.80
2018-06-20T09:30:43.403Z,53.00
2018-06-20T09:32:47.867Z,52.70
2018-06-20T09:34:52.318Z,52.20
2018-06-20T09:36:56.824Z,52.40
2018-06-20T09:39:01.391Z,52.20
2018-06-20T09:41:05.831Z,52.60
2018-06-20T09:43:10.337Z,52.80
2018-06-20T09:45:14.863Z,52.90
2018-06-20T09:47:19.400Z,52.20
2018-06-20T09:49:23.886Z,52.20
2018-06-20T09:53:33.561Z,52.20
2018-06-20T09:55:38.008Z,52.40
2018-06-20T09:59:51.971Z,53.10
2018-06-20T10:02:01.575Z,52.20
2018-06-20T10:04:12.116Z,52.00
2018-06-20T10:06:21.724Z,51.80
2018-06-20T10:08:31.624Z,52.10
2018-06-20T10:10:41.468Z,52.60
2018-06-20T10:12:51.711Z,52.10
2018-06-20T10:14:56.176Z,52.00
2018-06-20T10:17:00.558Z,51.70
2018-06-20T10:19:05.022Z,51.50
2018-06-20T10:21:09.994Z,51.60
2018-06-20T10:23:14.475Z,51.30
2018-06-20T10:25:18.986Z,50.40
2018-06-20T10:27:23.420Z,50.00
2018-06-20T10:29:27.962Z,50.10
2018-06-20T10:31:32.464Z,50.40
2018-06-20T10:33:36.915Z,49.90
2018-06-20T10:35:41.407Z,50.20
2018-06-20T10:37:45.838Z,50.10
2018-06-20T10:39:50.411Z,50.10
2018-06-20T10:41:54.851Z,50.50
2018-06-20T10:43:59.331Z,49.70
2018-06-20T10:46:09.013Z,49.60
2018-06-20T10:48:16.739Z,49.40
2018-06-20T10:50:21.277Z,49.00
2018-06-20T10:52:25.687Z,49.10
2018-06-20T10:54:30.134Z,49.50
2018-06-20T10:56:40.192Z,49.30
2018-06-20T10:58:50.137Z,49.30
2018-06-20T11:01:00.244Z,48.70
2018-06-20T11:03:10.113Z,48.30
2018-06-20T11:05:19.754Z,48.30
2018-06-20T11:07:29.490Z,48.10
2018-06-20T11:09:39.122Z,48.10
2018-06-20T11:11:48.809Z,47.60
2018-06-20T11:13:54.610Z,47.70
2018-06-20T11:15:59.506Z,48.30
2018-06-20T11:18:04.995Z,48.30
2018-06-20T11:20:15.501Z,47.20
2018-06-20T11:22:20.077Z,46.70
2018-06-20T11:24:24.550Z,47.30
2018-06-20T11:26:31.485Z,47.00
2018-06-20T11:28:35.939Z,46.80
2018-06-20T11:30:41.689Z,47.00
2018-06-20T11:32:46.286Z,46.80
2018-06-20T11:34:50.757Z,46.60
2018-06-20T11:36:55.207Z,46.80
2018-06-20T11:38:59.679Z,46.10
2018-06-20T11:41:04.370Z,46.00
2018-06-20T11:43:08.840Z,45.70
2018-06-20T11:45:14.354Z,45.50
2018-06-20T11:47:24.168Z,45.30
2018-06-20T11:49:28.601Z,45.20
2018-06-20T11:51:33.167Z,45.40
2018-06-20T11:53:37.752Z,45.30
2018-06-20T11:55:44.543Z,45.70
2018-06-20T11:57:49.529Z,45.10
2018-06-20T11:59:59.361Z,45.20
2018-06-20T12:02:09.911Z,45.90
2018-06-20T12:04:19.813Z,45.40
2018-06-20T12:06:30.183Z,44.80
2018-06-20T12:08:40.424Z,44.80
2018-06-20T12:10:50.235Z,44.40
2018-06-20T12:12:59.921Z,44.20
2018-06-20T12:15:09.482Z,44.10
2018-06-20T12:19:23.632Z,43.60
2018-06-20T12:21:33.520Z,43.60
2018-06-20T12:23:43.831Z,43.30
2018-06-20T12:25:53.790Z,43.80
2018-06-20T12:28:04.269Z,43.00
2018-06-20T12:30:14.906Z,42.60
2018-06-20T12:32:24.488Z,42.70
2018-06-20T12:34:34.128Z,42.30
2018-06-20T12:36:43.955Z,42.20
2018-06-20T12:38:53.543Z,41.80
2018-06-20T12:41:03.322Z,41.60
2018-06-20T12:43:13.070Z,41.40
2018-06-20T12:45:19.094Z,41.60
2018-06-20T12:47:27.531Z,41.50
2018-06-20T12:49:35.684Z,42.10
2018-06-20T12:51:40.188Z,41.80
2018-06-20T12:53:44.691Z,41.80
2018-06-20T12:55:49.102Z,41.50
2018-06-20T12:57:54.427Z,41.10
2018-06-20T13:00:02.950Z,41.00
2018-06-20T13:02:07.648Z,40.70
2018-06-20T13:04:12.290Z,39.60
2018-06-20T13:06:17.545Z,39.70
2018-06-20T13:08:22.721Z,39.20
2018-06-20T13:10:27.831Z,39.70
2018-06-20T13:14:38.063Z,39.70
2018-06-20T13:16:43.114Z,39.40
2018-06-20T13:18:58.760Z,39.00
2018-06-20T13:21:03.714Z,39.10
2018-06-20T13:23:08.374Z,39.00
2018-06-20T13:25:13.400Z,39.00
2018-06-20T13:27:23.204Z,38.90
2018-06-20T13:29:27.785Z,38.40
2018-06-20T13:31:37.482Z,38.50
2018-06-20T13:33:47.323Z,38.50
2018-06-20T13:35:57.559Z,38.10
2018-06-20T13:38:07.848Z,38.10
2018-06-20T13:40:18.348Z,38.70
2018-06-20T13:44:32.701Z,37.90
2018-06-20T13:46:42.835Z,37.50
2018-06-20T13:48:48.039Z,37.50
2018-06-20T13:50:53.437Z,37.70
2018-06-20T13:52:58.031Z,36.80
2018-06-20T13:55:03.027Z,36.50
2018-06-20T13:57:08.337Z,36.70
2018-06-20T13:59:12.924Z,37.10
2018-06-20T14:01:17.467Z,36.20
2018-06-20T14:03:22.665Z,35.60
2018-06-20T14:05:28.621Z,35.80
2018-06-20T14:07:33.767Z,35.80
2018-06-20T14:09:41.141Z,36.40
2018-06-20T14:11:46.218Z,36.50
2018-06-20T14:13:51.179Z,36.10
2018-06-20T14:15:56.386Z,35.60
2018-06-20T14:18:01.582Z,35.70
2018-06-20T14:20:11.827Z,35.50
2018-06-20T14:22:16.895Z,35.30
2018-06-20T14:24:21.571Z,35.20
2018-06-20T14:26:27.142Z,35.50
2018-06-20T14:28:32.299Z,35.50
2018-06-20T14:32:52.614Z,35.00
2018-06-20T14:35:02.132Z,34.80
2018-06-20T14:37:11.830Z,34.90
2018-06-20T14:39:21.560Z,35.20
2018-06-20T14:41:26.298Z,35.20
2018-06-20T14:43:36.096Z,34.50
2018-06-20T14:45:45.810Z,34.90
2018-06-20T14:47:50.623Z,34.70
2018-06-20T14:51:59.174Z,34.60
2018-06-20T14:54:03.670Z,34.60
2018-06-20T14:56:08.163Z,34.30
2018-06-20T14:58:12.612Z,34.40
2018-06-20T15:00:17.094Z,34.50
2018-06-20T15:02:21.607Z,34.80
2018-06-20T15:04:30.314Z,34.00
2018-06-20T15:06:35.350Z,34.20
2018-06-20T15:08:39.803Z,33.40
2018-06-20T15:10:44.242Z,33.10
2018-06-20T15:14:53.414Z,32.90
2018-06-20T15:17:04.233Z,32.70
2018-06-20T15:19:08.660Z,33.10
2018-06-20T15:23:17.556Z,32.90
2018-06-20T15:25:27.818Z,34.10
2018-06-20T15:27:37.896Z,34.10
2018-06-20T15:29:47.682Z,34.30
2018-06-20T15:31:58.042Z,33.50
2018-06-20T15:34:08.085Z,33.70
2018-06-20T15:36:18.153Z,33.60
2018-06-20T15:38:24.497Z,33.10
2018-06-20T15:40:29.518Z,32.90
2018-06-20T15:42:34.033Z,32.80
2018-06-20T15:44:38.697Z,32.50
2018-06-20T15:46:43.372Z,33.40
2018-06-20T15:48:47.890Z,33.30
2018-06-20T15:50:52.393Z,34.20
2018-06-20T15:52:57.673Z,34.50
2018-06-20T15:55:02.639Z,32.70
2018-06-20T15:59:12.273Z,34.00
2018-06-20T16:01:16.677Z,33.40
2018-06-20T16:07:30.679Z,34.00
2018-06-20T16:09:40.441Z,34.50
2018-06-20T16:11:45.542Z,34.30
2018-06-20T16:13:50.254Z,34.30
2018-06-20T16:15:54.918Z,34.10
2018-06-20T16:20:10.746Z,34.40
2018-06-20T16:23:23.699Z,33.40
2018-06-20T16:25:34.950Z,34.00
2018-06-20T16:27:48.388Z,34.20
2018-06-20T16:29:58.139Z,33.50
2018-06-20T16:34:06.758Z,34.80
2018-06-20T16:36:11.198Z,35.20
2018-06-20T16:38:16.095Z,35.60
2018-06-20T16:40:21.270Z,36.10
2018-06-20T16:42:26.359Z,36.20
2018-06-20T16:44:31.331Z,36.80
2018-06-20T16:46:35.849Z,36.30
2018-06-20T16:48:40.647Z,37.30
2018-06-20T16:50:45.215Z,37.10
2018-06-20T16:52:49.652Z,37.30
2018-06-20T16:54:54.343Z,37.20
2018-06-20T16:56:58.841Z,38.20
2018-06-20T16:59:03.506Z,38.50
2018-06-20T17:01:13.465Z,38.70
2018-06-20T17:03:17.954Z,38.90
2018-06-20T17:05:22.389Z,38.80
2018-06-20T17:07:26.873Z,38.90
2018-06-20T17:09:31.347Z,38.80
2018-06-20T17:11:35.820Z,38.80
2018-06-20T17:13:46.115Z,39.10
2018-06-20T17:15:55.817Z,38.50
2018-06-20T17:18:06.486Z,39.30
2018-06-20T17:20:16.212Z,39.80
2018-06-20T17:22:26.175Z,40.20
2018-06-20T17:24:35.957Z,40.80
2018-06-20T17:26:40.996Z,40.50
2018-06-20T17:28:45.657Z,40.80
2018-06-20T17:30:50.142Z,40.60
2018-06-20T17:32:55.294Z,41.20
2018-06-20T17:35:01.747Z,41.30
2018-06-20T17:37:06.623Z,41.30
2018-06-20T17:39:12.903Z,41.80
2018-06-20T17:41:17.431Z,41.90
2018-06-20T17:43:22.698Z,42.20
2018-06-20T17:45:27.173Z,42.60
2018-06-20T17:47:31.712Z,42.30
2018-06-20T17:49:36.607Z,42.70
2018-06-20T17:51:41.564Z,42.50
2018-06-20T17:53:46.680Z,42.80
2018-06-20T17:55:51.115Z,43.00
2018-06-20T17:57:55.563Z,43.30
2018-06-20T18:02:05.570Z,44.40
2018-06-20T18:04:14.372Z,44.00
2018-06-20T18:06:24.586Z,44.30
2018-06-20T18:08:34.113Z,44.10
2018-06-20T18:10:43.873Z,44.40
2018-06-20T18:12:54.546Z,44.40
2018-06-20T18:15:04.192Z,44.50
2018-06-20T18:17:08.719Z,44.50
2018-06-20T18:19:13.131Z,45.00
2018-06-20T18:21:17.769Z,44.90
2018-06-20T18:23:22.499Z,45.10
2018-06-20T18:25:27.099Z,45.40
2018-06-20T18:27:31.739Z,45.60
2018-06-20T18:29:37.266Z,45.80
2018-06-20T18:31:42.237Z,46.00
2018-06-20T18:33:47.616Z,46.10
2018-06-20T18:35:52.087Z,46.20
2018-06-20T18:37:56.850Z,46.30
2018-06-20T18:40:08.228Z,46.40
2018-06-20T18:42:13.126Z,47.20
2018-06-20T18:44:17.641Z,46.80
2018-06-20T18:46:23.695Z,46.90
2018-06-20T18:48:29.899Z,47.10
2018-06-20T18:50:34.375Z,47.80
2018-06-20T18:52:39.566Z,47.50
2018-06-20T18:54:44.455Z,47.50
2018-06-20T18:56:49.125Z,47.50
2018-06-20T18:58:59.051Z,47.80
2018-06-20T19:01:09.250Z,48.00
2018-06-20T19:03:19.491Z,48.30
2018-06-20T19:05:29.434Z,48.40
2018-06-20T19:07:38.999Z,48.80
2018-06-20T19:09:44.363Z,49.10
2018-06-20T19:11:49.009Z,49.30
2018-06-20T19:13:53.819Z,49.50
2018-06-20T19:15:58.235Z,49.70
2018-06-20T19:18:06.752Z,49.80
2018-06-20T19:20:11.426Z,50.00
2018-06-20T19:22:16.252Z,50.20
2018-06-20T19:24:20.679Z,50.40
2018-06-20T19:26:25.164Z,50.40
2018-06-20T19:28:29.700Z,50.50
2018-06-20T19:30:34.181Z,50.60
2018-06-20T19:32:39.270Z,50.60
2018-06-20T19:34:43.762Z,50.60
2018-06-20T19:36:48.192Z,50.70
2018-06-20T19:38:52.827Z,50.70
2018-06-20T19:40:57.335Z,50.80
2018-06-20T19:43:02.279Z,50.80
2018-06-20T19:45:07.332Z,51.00
2018-06-20T19:47:13.232Z,51.20
2018-06-20T19:49:18.351Z,51.60
2018-06-20T19:51:22.990Z,51.60
2018-06-20T19:53:27.497Z,51.60
2018-06-20T19:57:36.422Z,51.60
2018-06-20T19:59:42.078Z,51.50
2018-06-20T20:01:46.580Z,51.90
2018-06-20T20:03:52.339Z,51.90
2018-06-20T20:08:01.363Z,52.20
2018-06-20T20:10:06.790Z,52.20
2018-06-20T20:12:11.295Z,52.30
2018-06-20T20:14:16.230Z,52.50
2018-06-20T20:16:20.739Z,52.50
2018-06-20T20:18:29.340Z,52.60
2018-06-20T20:20:33.978Z,52.80
2018-06-20T20:22:39.020Z,52.70
2018-06-20T20:24:43.711Z,52.80
2018-06-20T20:26:49.472Z,52.80
2018-06-20T20:28:54.199Z,52.80
2018-06-20T20:30:59.454Z,53.00
2018-06-20T20:33:03.999Z,53.10
2018-06-20T20:35:08.469Z,53.30
2018-06-20T20:37:14.095Z,53.40
2018-06-20T20:39:18.540Z,53.40
2018-06-20T20:41:22.965Z,53.50
2018-06-20T20:43:27.702Z,53.60
2018-06-20T20:45:32.722Z,53.70
2018-06-20T20:47:37.634Z,53.80
2018-06-20T20:49:42.983Z,54.00
2018-06-20T20:51:47.915Z,54.00
2018-06-20T20:53:52.434Z,54.30
2018-06-20T20:55:57.007Z,54.30
2018-06-20T20:58:02.524Z,55.10
2018-06-20T21:00:08.343Z,54.50
2018-06-20T21:02:13.219Z,54.60
2018-06-20T21:04:19.329Z,54.70
2018-06-20T21:06:24.355Z,54.90
2018-06-20T21:08:29.531Z,55.00
2018-06-20T21:10:34.387Z,55.10
2018-06-20T21:12:39.021Z,55.20
2018-06-20T21:14:43.659Z,55.10
2018-06-20T21:16:48.293Z,55.10
2018-06-20T21:18:53.206Z,55.10
2018-06-20T21:20:57.656Z,55.10
2018-06-20T21:23:03.502Z,55.30
2018-06-20T21:25:08.074Z,55.20
2018-06-20T21:27:12.483Z,55.20
2018-06-20T21:29:18.750Z,55.30
2018-06-20T21:31:23.870Z,55.20
2018-06-20T21:33:28.579Z,55.30
2018-06-20T21:35:33.418Z,55.40
2018-06-20T21:37:37.993Z,56.00
2018-06-20T21:39:45.181Z,55.40
2018-06-20T21:43:55.055Z,55.50
2018-06-20T21:46:01.931Z,55.80
2018-06-20T21:48:06.503Z,55.80
2018-06-20T21:50:10.979Z,55.90
2018-06-20T21:54:20.467Z,56.10
2018-06-20T21:56:24.979Z,56.10
2018-06-20T21:58:29.425Z,56.10
2018-06-20T22:00:33.927Z,56.10
2018-06-20T22:02:38.505Z,56.60
2018-06-20T22:06:48.624Z,56.50
2018-06-20T22:10:57.412Z,56.60
2018-06-20T22:13:01.837Z,56.60
2018-06-20T22:17:10.447Z,56.90
2018-06-20T22:19:14.881Z,56.90
2018-06-20T22:21:19.334Z,57.00
2018-06-20T22:23:23.859Z,57.10
2018-06-20T22:25:28.438Z,57.10
2018-06-20T22:27:32.871Z,57.20
2018-06-20T22:29:37.318Z,57.20
2018-06-20T22:31:41.743Z,56.80
2018-06-20T22:33:46.416Z,57.20
2018-06-20T22:35:50.858Z,57.30
2018-06-20T22:37:55.315Z,57.40
2018-06-20T22:40:01.307Z,57.30
2018-06-20T22:42:08.907Z,57.40
2018-06-20T22:44:13.955Z,57.30
2018-06-20T22:46:18.390Z,57.40
2018-06-20T22:48:23.998Z,57.50
2018-06-20T22:50:28.466Z,57.60
2018-06-20T22:52:32.906Z,57.60
2018-06-20T22:54:37.892Z,57.60
2018-06-20T22:56:42.354Z,57.60
2018-06-20T22:58:47.016Z,57.60
2018-06-20T23:00:51.551Z,57.70
2018-06-20T23:02:56.022Z,57.80
2018-06-20T23:05:00.467Z,57.70
2018-06-20T23:07:04.962Z,57.80
2018-06-20T23:09:11.032Z,57.80
2018-06-20T23:11:15.448Z,58.50
2018-06-20T23:13:19.895Z,58.00
2018-06-20T23:15:24.351Z,58.00
2018-06-20T23:17:28.738Z,58.20
2018-06-20T23:19:33.176Z,58.50
2018-06-20T23:21:37.727Z,58.10
2018-06-20T23:23:42.212Z,58.10
2018-06-20T23:25:53.515Z,58.20
2018-06-20T23:27:57.991Z,58.40
2018-06-20T23:30:02.448Z,58.50
2018-06-20T23:32:06.982Z,58.40
2018-06-20T23:34:11.890Z,58.50
2018-06-20T23:36:16.331Z,58.70
2018-06-20T23:38:20.751Z,58.80
2018-06-20T23:40:25.129Z,58.90
2018-06-20T23:42:29.617Z,59.00
2018-06-20T23:44:34.045Z,59.10
2018-06-20T23:46:38.550Z,59.20
2018-06-20T23:48:43.113Z,59.20
2018-06-20T23:50:47.602Z,59.30
2018-06-20T23:52:52.062Z,60.10
2018-06-20T23:54:56.470Z,59.70
2018-06-20T23:57:00.946Z,59.80
2018-06-20T23:59:05.381Z,60.00
